createdAt,value
2023-03-29T00:03:52.059Z,99843.83
2023-03-29T00:08:55.164Z,99841.19
2023-03-29T00:13:58.141Z,99838.67
2023-03-29T00:19:01.600Z,99840.75
2023-03-29T00:24:04.773Z,99839.90
2023-03-29T00:29:07.723Z,99838.90
2023-03-29T00:34:10.787Z,99841.65
2023-03-29T00:39:13.703Z,99841.00
2023-03-29T00:45:06.227Z,99842.20
2023-03-29T00:50:39.472Z,99842.08
2023-03-29T00:56:04.593Z,99839.20
2023-03-29T01:01:15.698Z,99838.20
2023-03-29T01:06:21.790Z,99837.73
2023-03-29T01:11:34.576Z,99837.23
2023-03-29T01:16:38.591Z,99838.22
2023-03-29T01:21:52.032Z,99840.43
2023-03-29T01:27:09.784Z,99842.83
2023-03-29T01:32:47.998Z,99839.42
2023-03-29T01:38:34.441Z,99833.98
2023-03-29T01:43:50.754Z,99832.27
2023-03-29T01:49:03.682Z,99833.48
2023-03-29T01:54:11.975Z,99836.23
2023-03-29T01:59:22.782Z,99843.24
2023-03-29T02:04:35.301Z,99846.33
2023-03-29T02:09:38.944Z,99848.59
2023-03-29T02:14:41.877Z,99849.97
2023-03-29T02:19:51.158Z,99851.02
2023-03-29T02:24:59.499Z,99854.07
2023-03-29T02:30:02.517Z,99854.08
2023-03-29T02:35:13.926Z,99852.35
2023-03-29T02:40:18.145Z,99853.04
2023-03-29T02:45:23.064Z,99853.56
2023-03-29T02:50:32.300Z,99858.35
2023-03-29T02:55:36.211Z,99859.38
2023-03-29T03:00:45.885Z,99863.48
2023-03-29T03:05:49.299Z,99862.44
2023-03-29T03:10:52.603Z,99864.67
2023-03-29T03:15:56.279Z,99860.93
2023-03-29T03:21:02.453Z,99864.84
2023-03-29T03:26:05.575Z,99869.77
2023-03-29T03:31:08.508Z,99870.30
2023-03-29T03:36:11.608Z,99865.20
2023-03-29T03:41:14.581Z,99865.38
2023-03-29T03:46:17.956Z,99869.64
2023-03-29T03:51:21.008Z,99872.55
2023-03-29T03:56:23.916Z,99877.31
2023-03-29T04:01:27.463Z,99881.23
2023-03-29T04:06:30.737Z,99883.42
2023-03-29T04:11:33.756Z,99885.30
2023-03-29T04:16:37.043Z,99887.20
2023-03-29T04:21:40.037Z,99892.13
2023-03-29T04:26:43.894Z,99895.85
2023-03-29T04:31:46.874Z,99896.88
2023-03-29T04:36:50.380Z,99898.41
2023-03-29T04:41:53.279Z,99895.16
2023-03-29T04:46:56.203Z,99897.16
2023-03-29T04:52:00.928Z,99904.13
2023-03-29T04:57:08.555Z,99903.09
2023-03-29T05:02:11.646Z,99905.78
2023-03-29T05:07:15.731Z,99905.86
2023-03-29T05:12:18.588Z,99906.84
2023-03-29T05:17:22.149Z,99912.69
2023-03-29T05:22:25.112Z,99911.05
2023-03-29T05:27:28.365Z,99905.65
2023-03-29T05:32:31.397Z,99910.29
2023-03-29T05:37:34.833Z,99915.86
2023-03-29T05:42:39.083Z,99918.45
2023-03-29T05:47:42.066Z,99919.13
2023-03-29T05:52:45.028Z,99919.00
2023-03-29T05:57:47.983Z,99924.63
2023-03-29T06:02:59.269Z,99924.85
2023-03-29T06:08:10.045Z,99927.18
2023-03-29T06:13:13.106Z,99930.63
2023-03-29T06:18:16.415Z,99933.88
2023-03-29T06:23:23.282Z,99931.63
2023-03-29T06:28:26.431Z,99936.11
2023-03-29T06:33:30.720Z,99935.39
2023-03-29T06:38:34.139Z,99941.56
2023-03-29T06:43:37.789Z,99947.60
2023-03-29T06:48:41.533Z,99953.10
2023-03-29T06:53:44.467Z,99946.58
2023-03-29T06:58:47.449Z,99947.16
2023-03-29T07:03:50.520Z,99949.52
2023-03-29T07:08:53.693Z,99947.36
2023-03-29T07:13:56.609Z,99950.52
2023-03-29T07:18:59.652Z,99958.78
2023-03-29T07:24:04.677Z,99958.64
2023-03-29T07:29:07.812Z,99961.70
2023-03-29T07:34:13.939Z,99961.03
2023-03-29T07:39:16.890Z,99960.70
2023-03-29T07:44:21.654Z,99956.33
2023-03-29T07:49:24.840Z,99956.27
2023-03-29T07:54:27.842Z,99955.23
2023-03-29T07:59:30.999Z,99957.06
2023-03-29T08:04:34.153Z,99960.37
2023-03-29T08:09:37.539Z,99955.61
2023-03-29T08:14:40.682Z,99956.95
2023-03-29T08:19:51.026Z,99953.30
2023-03-29T08:24:55.381Z,99948.12
2023-03-29T08:29:58.181Z,99937.95
2023-03-29T08:35:03.903Z,99941.63
2023-03-29T08:40:07.798Z,99939.87
2023-03-29T08:45:35.521Z,99939.17
2023-03-29T08:50:48.140Z,99937.86
2023-03-29T08:55:53.587Z,99933.98
2023-03-29T09:01:03.629Z,99932.83
2023-03-29T09:06:10.902Z,99932.59
2023-03-29T09:11:28.593Z,99926.48
2023-03-29T09:17:30.694Z,99915.67
2023-03-29T09:23:15.084Z,99913.27
2023-03-29T09:28:38.284Z,99910.00
2023-03-29T09:33:52.380Z,99912.48
2023-03-29T09:38:55.876Z,99905.99
2023-03-29T09:44:03.473Z,99901.89
2023-03-29T09:49:12.496Z,99901.92
2023-03-29T09:54:15.808Z,99900.07
2023-03-29T09:59:19.052Z,99895.63
2023-03-29T10:04:22.671Z,99892.09
2023-03-29T10:09:29.278Z,99890.67
2023-03-29T10:14:45.048Z,99891.61
2023-03-29T10:20:04.235Z,99884.13
2023-03-29T10:25:17.166Z,99884.95
2023-03-29T10:30:26.101Z,99884.67
2023-03-29T10:35:41.982Z,99890.11
2023-03-29T10:40:51.870Z,99889.27
2023-03-29T10:46:05.210Z,99876.86
2023-03-29T10:51:08.188Z,99876.61
2023-03-29T10:56:40.335Z,99872.23
2023-03-29T11:02:07.999Z,99866.89
2023-03-29T11:07:34.693Z,99864.89
2023-03-29T11:13:00.445Z,99859.00
2023-03-29T11:18:31.691Z,99854.19
2023-03-29T11:24:30.016Z,99855.13
2023-03-29T11:30:00.945Z,99847.34
2023-03-29T11:35:25.490Z,99839.11
2023-03-29T11:40:57.443Z,99830.08
2023-03-29T11:46:10.073Z,99828.08
2023-03-29T11:51:29.341Z,99820.55
2023-03-29T11:56:43.981Z,99816.52
2023-03-29T12:01:55.999Z,99811.66
2023-03-29T12:07:32.328Z,99808.73
2023-03-29T12:13:12.143Z,99808.51
2023-03-29T12:18:30.416Z,99804.48
2023-03-29T12:23:33.956Z,99797.05
2023-03-29T12:29:05.395Z,99796.21
2023-03-29T12:34:42.584Z,99794.95
2023-03-29T12:39:45.762Z,99793.70
2023-03-29T12:44:59.251Z,99794.64
2023-03-29T12:50:03.477Z,99786.33
2023-03-29T12:55:49.192Z,99787.48
2023-03-29T13:01:23.398Z,99784.93
2023-03-29T13:06:34.075Z,99779.52
2023-03-29T13:11:42.760Z,99775.56
2023-03-29T13:16:46.700Z,99772.71
2023-03-29T13:22:17.100Z,99767.09
2023-03-29T13:27:39.759Z,99753.34
2023-03-29T13:33:13.471Z,99758.41
2023-03-29T13:38:22.262Z,99755.12
2023-03-29T13:43:41.323Z,99748.77
2023-03-29T13:48:53.815Z,99747.10
2023-03-29T13:54:23.451Z,99740.05
2023-03-29T14:00:11.910Z,99740.98
2023-03-29T14:05:20.811Z,99734.18
2023-03-29T14:10:35.029Z,99729.56
2023-03-29T14:15:48.668Z,99730.80
2023-03-29T14:20:56.246Z,99723.16
2023-03-29T14:26:34.589Z,99722.28
2023-03-29T14:31:40.736Z,99722.00
2023-03-29T14:36:49.380Z,99720.05
2023-03-29T14:41:57.899Z,99714.52
2023-03-29T14:47:03.088Z,99714.65
2023-03-29T14:52:06.665Z,99712.64
2023-03-29T14:57:16.599Z,99712.52
2023-03-29T15:02:32.430Z,99704.83
2023-03-29T15:07:40.022Z,99699.33
2023-03-29T15:12:43.356Z,99695.86
2023-03-29T15:17:50.881Z,99695.48
2023-03-29T15:23:00.161Z,99695.70
2023-03-29T15:28:04.349Z,99696.23
2023-03-29T15:33:19.384Z,99691.61
2023-03-29T15:38:30.231Z,99690.23
2023-03-29T15:43:39.835Z,99688.90
2023-03-29T15:48:43.508Z,99682.42
2023-03-29T15:53:46.498Z,99680.23
2023-03-29T15:58:49.707Z,99683.77
2023-03-29T16:03:52.686Z,99684.73
2023-03-29T16:08:57.355Z,99686.29
2023-03-29T16:14:01.014Z,99683.08
2023-03-29T16:19:04.048Z,99684.39
2023-03-29T16:24:12.091Z,99680.90
2023-03-29T16:29:17.429Z,99678.98
2023-03-29T16:34:22.821Z,99677.65
2023-03-29T16:39:25.826Z,99674.28
2023-03-29T16:44:29.072Z,99674.02
2023-03-29T16:49:32.062Z,99663.38
2023-03-29T16:54:34.952Z,99658.10
2023-03-29T16:59:38.116Z,99654.23
2023-03-29T17:04:41.125Z,99653.09
2023-03-29T17:09:45.995Z,99649.61
2023-03-29T17:14:49.248Z,99651.66
2023-03-29T17:19:52.391Z,99657.16
2023-03-29T17:24:55.388Z,99661.14
2023-03-29T17:29:58.362Z,99667.36
2023-03-29T17:35:01.355Z,99667.94
2023-03-29T17:40:13.925Z,99667.95
2023-03-29T17:45:17.251Z,99666.02
2023-03-29T17:50:21.201Z,99669.10
2023-03-29T17:55:24.277Z,99664.36
2023-03-29T18:00:27.704Z,99670.04
2023-03-29T18:05:30.714Z,99677.46
2023-03-29T18:10:33.740Z,99676.92
2023-03-29T18:15:36.976Z,99684.61
2023-03-29T18:20:39.951Z,99677.18
2023-03-29T18:25:42.961Z,99678.73
2023-03-29T18:30:46.072Z,99683.91
2023-03-29T18:35:51.355Z,99680.58
2023-03-29T18:40:54.336Z,99682.34
2023-03-29T18:45:57.692Z,99682.77
2023-03-29T18:51:01.214Z,99681.21
2023-03-29T18:56:06.611Z,99683.59
2023-03-29T19:01:10.952Z,99686.15
2023-03-29T19:06:15.258Z,99678.07
2023-03-29T19:11:18.204Z,99673.30
2023-03-29T19:16:21.278Z,99672.58
2023-03-29T19:21:24.355Z,99674.11
2023-03-29T19:26:29.548Z,99674.67
2023-03-29T19:31:35.142Z,99676.40
2023-03-29T19:36:38.354Z,99664.34
2023-03-29T19:41:41.939Z,99659.80
2023-03-29T19:46:44.989Z,99656.35
2023-03-29T19:51:48.212Z,99655.33
2023-03-29T19:56:52.857Z,99659.21
2023-03-29T20:01:57.120Z,99662.04
2023-03-29T20:07:00.233Z,99659.45
2023-03-29T20:12:04.003Z,99658.23
2023-03-29T20:17:07.382Z,99656.17
2023-03-29T20:22:11.988Z,99652.91
2023-03-29T20:27:15.905Z,99645.53
2023-03-29T20:32:18.713Z,99639.78
2023-03-29T20:37:23.148Z,99633.39
2023-03-29T20:42:28.761Z,99632.45
2023-03-29T20:47:31.845Z,99629.11
2023-03-29T20:52:36.060Z,99629.10
2023-03-29T20:57:40.658Z,99627.92
2023-03-29T21:02:44.292Z,99616.25
2023-03-29T21:07:48.153Z,99607.46
2023-03-29T21:12:54.324Z,99597.82
2023-03-29T21:17:57.393Z,99593.13
2023-03-29T21:23:01.221Z,99593.45
2023-03-29T21:28:04.154Z,99592.67
2023-03-29T21:33:07.108Z,99587.87
2023-03-29T21:38:10.098Z,99583.49
2023-03-29T21:43:13.186Z,99584.14
2023-03-29T21:48:17.854Z,99581.90
2023-03-29T21:53:20.952Z,99582.36
2023-03-29T21:58:23.925Z,99576.67
2023-03-29T22:03:26.912Z,99574.30
2023-03-29T22:08:31.400Z,99576.21
2023-03-29T22:13:34.490Z,99578.75
2023-03-29T22:18:44.211Z,99584.61
2023-03-29T22:23:49.945Z,99585.24
2023-03-29T22:28:54.127Z,99586.56
2023-03-29T22:33:58.627Z,99585.89
2023-03-29T22:39:01.822Z,99589.02
2023-03-29T22:44:05.830Z,99578.60
2023-03-29T22:49:08.649Z,99576.05
2023-03-29T22:54:12.120Z,99578.70
2023-03-29T22:59:15.970Z,99577.73
2023-03-29T23:04:18.834Z,99573.84
2023-03-29T23:09:22.206Z,99572.45
2023-03-29T23:14:25.172Z,99566.98
2023-03-29T23:19:28.209Z,99567.67
2023-03-29T23:24:31.248Z,99567.33
2023-03-29T23:29:34.624Z,99561.34
2023-03-29T23:34:37.681Z,99549.61
2023-03-29T23:39:40.720Z,99541.36
2023-03-29T23:44:43.981Z,99532.58
2023-03-29T23:49:46.978Z,99527.85
2023-03-29T23:54:51.330Z,99523.20
2023-03-29T23:59:56.028Z,99516.39
